Time;durP1;ratioP1;P1;durP2;ratioP2;P2;SDS_P1;SDS_P2;PMS_P1;PMS_P2;Temp;Humidity;BMP_temperature;BMP_pressure;BME280_temperature;BME280_humidity;BME280_pressure;Samples;Min_cycle;Max_cycle;Signal;HPM_P1;HPM_P2
2023/04/12 00:00:31;;;;;;;3.72;0.93;;;7.80;99.90;;;;;;5023220;28;20048;-80
2023/04/12 00:02:58;;;;;;;3.10;1.58;;;7.80;99.90;;;;;;5022251;28;20072;-78
2023/04/12 00:05:26;;;;;;;2.97;1.20;;;7.80;99.90;;;;;;5024276;28;20042;-81
2023/04/12 00:07:52;;;;;;;1.58;0.82;;;7.80;99.90;;;;;;5023611;28;20060;-76
2023/04/12 00:10:18;;;;;;;12.15;1.73;;;7.80;99.90;;;;;;5027214;28;20064;-80
2023/04/12 00:12:45;;;;;;;1.63;0.98;;;7.80;99.90;;;;;;5024637;28;20045;-76
2023/04/12 00:15:10;;;;;;;2.55;1.65;;;7.80;99.90;;;;;;5027217;28;20041;-80
2023/04/12 00:17:36;;;;;;;2.72;1.48;;;7.80;99.90;;;;;;5026505;28;20491;-79
2023/04/12 00:20:10;;;;;;;0.95;0.90;;;7.80;99.90;;;;;;5025800;28;20532;-81
2023/04/12 00:22:36;;;;;;;1.55;1.25;;;7.80;99.90;;;;;;5026369;28;20110;-79
2023/04/12 00:25:02;;;;;;;2.03;1.10;;;7.80;99.90;;;;;;5025714;28;20053;-80
2023/04/12 00:27:27;;;;;;;2.08;1.42;;;7.90;99.90;;;;;;5024501;28;20514;-78
2023/04/12 00:29:53;;;;;;;1.58;0.77;;;7.90;99.90;;;;;;5027117;28;20041;-81
2023/04/12 00:32:18;;;;;;;4.50;1.08;;;7.90;99.90;;;;;;5027107;28;20044;-80
2023/04/12 00:34:45;;;;;;;2.42;1.70;;;7.90;99.90;;;;;;5025123;28;20055;-79
2023/04/12 00:37:10;;;;;;;1.42;1.33;;;7.90;99.90;;;;;;5025596;28;20096;-80
2023/04/12 00:39:36;;;;;;;1.63;1.27;;;7.90;99.90;;;;;;5026388;28;20084;-78
2023/04/12 00:42:05;;;;;;;2.28;0.77;;;7.90;99.90;;;;;;5026003;28;20112;-81
2023/04/12 00:44:32;;;;;;;9.27;1.17;;;8.00;99.90;;;;;;5026563;28;20045;-79
2023/04/12 00:46:59;;;;;;;4.80;1.83;;;7.90;99.90;;;;;;5026335;28;20049;-80
2023/04/12 00:49:29;;;;;;;0.68;0.68;;;7.90;99.90;;;;;;5026907;28;20038;-78
2023/04/12 00:52:02;;;;;;;3.03;1.10;;;7.90;99.90;;;;;;5026443;28;20061;-78
2023/04/12 00:54:28;;;;;;;3.30;1.27;;;8.00;99.90;;;;;;5026121;28;20377;-80
2023/04/12 00:56:56;;;;;;;2.40;1.45;;;8.00;99.90;;;;;;5024628;28;20480;-78
2023/04/12 00:59:22;;;;;;;1.55;1.10;;;8.00;99.90;;;;;;5042433;28;20033;-81
2023/04/12 01:01:48;;;;;;;0.88;0.77;;;8.00;99.90;;;;;;5025686;28;20034;-80
2023/04/12 01:04:14;;;;;;;2.17;1.35;;;8.00;99.90;;;;;;5026074;28;20307;-81
2023/04/12 01:06:49;;;;;;;2.22;1.30;;;8.00;99.90;;;;;;5025647;28;20539;-80
2023/04/12 01:09:50;;;;;;;1.40;1.30;;;8.00;99.90;;;;;;5041728;28;20183;-81
2023/04/12 01:12:36;;;;;;;2.88;0.80;;;8.00;99.90;;;;;;5023881;28;20119;-80
2023/04/12 01:15:08;;;;;;;2.67;1.65;;;8.00;99.90;;;;;;5026156;28;20053;-78
2023/04/12 01:17:56;;;;;;;1.90;0.65;;;8.00;99.90;;;;;;5024245;28;20132;-78
2023/04/12 01:20:27;;;;;;;1.90;1.38;;;8.00;99.90;;;;;;5024700;28;20045;-79
2023/04/12 01:23:30;;;;;;;5.07;1.95;;;8.00;99.90;;;;;;5024614;28;20333;-79
2023/04/12 01:26:31;;;;;;;2.72;1.13;;;8.00;99.90;;;;;;5023172;28;20056;-78
2023/04/12 01:28:58;;;;;;;2.38;2.17;;;8.00;99.90;;;;;;5026006;28;20046;-77
2023/04/12 01:31:25;;;;;;;3.13;1.30;;;8.00;99.90;;;;;;5024325;28;20503;-80
2023/04/12 01:33:53;;;;;;;2.28;1.42;;;8.00;99.90;;;;;;5026349;28;20049;-80
2023/04/12 01:36:21;;;;;;;0.50;0.40;;;8.00;99.90;;;;;;5025800;28;20125;-80
2023/04/12 01:38:48;;;;;;;3.63;1.73;;;8.00;99.90;;;;;;5024929;28;20073;-79
2023/04/12 01:41:14;;;;;;;2.38;1.52;;;8.00;99.90;;;;;;5023534;28;20411;-79
2023/04/12 01:43:42;;;;;;;1.25;1.02;;;8.00;99.90;;;;;;5023886;28;20124;-79
2023/04/12 01:46:08;;;;;;;0.70;0.70;;;8.00;99.90;;;;;;5023623;28;20612;-79
2023/04/12 01:48:34;;;;;;;2.10;1.33;;;8.00;99.90;;;;;;5025357;28;20041;-80
2023/04/12 01:51:06;;;;;;;2.08;1.45;;;8.00;99.90;;;;;;5025128;28;20080;-77
2023/04/12 01:53:58;;;;;;;1.42;1.23;;;8.00;99.90;;;;;;5024721;28;20129;-79
2023/04/12 01:56:29;;;;;;;4.07;1.63;;;8.00;99.90;;;;;;5023357;28;20041;-78
2023/04/12 01:58:56;;;;;;;1.67;0.75;;;8.00;99.90;;;;;;5024345;28;20042;-77
2023/04/12 02:01:22;;;;;;;1.20;1.10;;;8.10;99.90;;;;;;5025307;28;20544;-79
2023/04/12 02:03:50;;;;;;;0.93;0.70;;;8.00;99.90;;;;;;5024587;28;20446;-77
2023/04/12 02:06:19;;;;;;;2.75;1.90;;;8.10;99.90;;;;;;5023360;28;20129;-76
2023/04/12 02:08:46;;;;;;;2.30;0.95;;;8.00;99.90;;;;;;5023396;28;20061;-80
2023/04/12 02:11:13;;;;;;;4.03;0.95;;;8.00;99.90;;;;;;5023633;28;20045;-79
2023/04/12 02:13:39;;;;;;;0.60;0.60;;;8.10;99.90;;;;;;5023776;28;20049;-79
2023/04/12 02:16:06;;;;;;;1.20;1.10;;;8.10;99.90;;;;;;5025053;28;20191;-78
2023/04/12 02:18:34;;;;;;;1.15;0.68;;;8.00;99.90;;;;;;5024538;28;20045;-80
2023/04/12 02:21:00;;;;;;;0.90;0.90;;;8.00;99.90;;;;;;5024500;28;20042;-78
2023/04/12 02:23:25;;;;;;;2.58;0.90;;;8.00;99.90;;;;;;5023027;28;20055;-78
2023/04/12 02:25:51;;;;;;;1.35;0.98;;;8.10;99.90;;;;;;5024361;28;20037;-77
2023/04/12 02:28:17;;;;;;;0.55;0.55;;;8.00;99.90;;;;;;5024421;28;20569;-80
2023/04/12 02:30:42;;;;;;;0.75;0.75;;;8.00;99.90;;;;;;5024082;28;20382;-80
2023/04/12 02:33:08;;;;;;;2.08;0.70;;;8.00;99.90;;;;;;5024121;28;20045;-78
2023/04/12 02:35:37;;;;;;;1.75;1.05;;;8.10;99.90;;;;;;5024137;28;20048;-79
2023/04/12 02:38:07;;;;;;;0.95;0.77;;;8.00;99.90;;;;;;5006429;28;20103;-78
2023/04/12 02:40:34;;;;;;;0.80;0.75;;;8.10;99.90;;;;;;5023102;28;20049;-80
2023/04/12 02:43:00;;;;;;;1.13;1.05;;;8.10;99.90;;;;;;5021955;28;20049;-78
2023/04/12 02:45:26;;;;;;;2.15;1.17;;;8.10;99.90;;;;;;5024296;28;20052;-77
2023/04/12 02:47:51;;;;;;;2.88;1.40;;;8.10;99.90;;;;;;5024414;28;20095;-75
2023/04/12 02:50:17;;;;;;;1.90;0.60;;;8.10;99.90;;;;;;5024472;28;20037;-80
2023/04/12 02:52:42;;;;;;;0.93;0.93;;;8.10;99.90;;;;;;5022904;28;20053;-79
2023/04/12 02:55:08;;;;;;;1.20;0.80;;;8.10;99.90;;;;;;5022738;28;20084;-78
2023/04/12 02:57:34;;;;;;;0.63;0.57;;;8.10;99.90;;;;;;5022822;28;20429;-80
2023/04/12 03:00:00;;;;;;;3.17;0.93;;;8.10;99.90;;;;;;5024387;28;20045;-78
2023/04/12 03:02:26;;;;;;;1.58;0.90;;;8.10;99.90;;;;;;5023746;28;20136;-81
2023/04/12 03:04:53;;;;;;;1.08;1.00;;;8.10;99.90;;;;;;5024521;28;20037;-80
2023/04/12 03:07:21;;;;;;;2.92;2.13;;;8.10;99.90;;;;;;5022567;28;20667;-80
2023/04/12 03:09:48;;;;;;;0.75;0.68;;;8.10;99.90;;;;;;5024184;28;20894;-79
2023/04/12 03:12:15;;;;;;;1.38;1.13;;;8.20;99.90;;;;;;5005638;28;20115;-79
2023/04/12 03:14:41;;;;;;;2.83;1.38;;;8.10;99.90;;;;;;5023815;28;20120;-79
2023/04/12 03:17:07;;;;;;;1.38;1.27;;;8.10;99.90;;;;;;5023931;28;20046;-78
2023/04/12 03:19:34;;;;;;;4.25;0.80;;;8.10;99.90;;;;;;5023492;28;20080;-78
2023/04/12 03:22:00;;;;;;;2.05;1.55;;;8.20;99.90;;;;;;5023634;28;20853;-78
2023/04/12 03:24:26;;;;;;;1.55;1.02;;;8.10;99.90;;;;;;5024061;28;20091;-79
2023/04/12 03:26:52;;;;;;;1.67;1.58;;;8.10;99.90;;;;;;5022510;28;20376;-76
2023/04/12 03:29:18;;;;;;;1.85;0.95;;;8.10;99.90;;;;;;5022460;28;20041;-80
2023/04/12 03:31:43;;;;;;;0.75;0.73;;;8.10;99.90;;;;;;5022840;28;20099;-81
2023/04/12 03:34:09;;;;;;;3.40;1.00;;;8.10;99.90;;;;;;5023375;28;20057;-77
2023/04/12 03:36:35;;;;;;;2.50;1.23;;;8.10;99.90;;;;;;5023480;28;20041;-80
2023/04/12 03:39:00;;;;;;;4.55;1.90;;;8.10;99.90;;;;;;5024054;28;20072;-79
2023/04/12 03:41:27;;;;;;;1.15;0.63;;;8.10;99.90;;;;;;5021520;28;20120;-80
2023/04/12 03:43:53;;;;;;;1.13;1.00;;;8.10;99.90;;;;;;5027271;28;20041;-80
2023/04/12 03:46:18;;;;;;;1.48;1.00;;;8.10;99.90;;;;;;5027264;28;20206;-78
2023/04/12 03:48:44;;;;;;;4.00;1.67;;;8.10;99.90;;;;;;5026010;28;20052;-81
2023/04/12 03:51:11;;;;;;;0.77;0.77;;;8.10;99.90;;;;;;5027455;28;20091;-78
2023/04/12 03:53:40;;;;;;;3.95;0.82;;;8.10;99.90;;;;;;5026875;28;20094;-80
2023/04/12 03:56:06;;;;;;;2.15;1.15;;;8.10;99.90;;;;;;5026777;28;20087;-79
2023/04/12 03:58:34;;;;;;;1.52;0.55;;;8.10;99.90;;;;;;5027276;28;20747;-80
2023/04/12 04:01:05;;;;;;;0.68;0.57;;;8.10;99.90;;;;;;5042699;28;20056;-78
2023/04/12 04:03:33;;;;;;;4.07;1.35;;;8.10;99.90;;;;;;5025650;28;20056;-80
2023/04/12 04:06:02;;;;;;;4.28;0.98;;;8.10;99.90;;;;;;5042388;28;20044;-75
2023/04/12 04:08:29;;;;;;;1.25;0.80;;;8.10;99.90;;;;;;5025831;28;20487;-78
2023/04/12 04:10:56;;;;;;;3.45;1.77;;;8.10;99.90;;;;;;5025271;28;20683;-78
2023/04/12 04:13:22;;;;;;;1.70;1.48;;;8.10;99.90;;;;;;5026167;28;20107;-76
2023/04/12 04:15:54;;;;;;;4.53;1.83;;;8.10;99.90;;;;;;5026403;28;20487;-78
2023/04/12 04:18:20;;;;;;;1.15;0.88;;;8.10;99.90;;;;;;5026086;28;20492;-78
2023/04/12 04:20:45;;;;;;;1.85;1.73;;;8.10;99.90;;;;;;5026729;28;20048;-79
2023/04/12 04:23:11;;;;;;;3.35;1.38;;;8.10;99.90;;;;;;5025572;28;20703;-79
2023/04/12 04:25:38;;;;;;;2.83;1.30;;;8.10;99.90;;;;;;5025586;28;20370;-79
2023/04/12 04:28:06;;;;;;;1.35;1.25;;;8.10;99.90;;;;;;5026871;28;20048;-79
2023/04/12 04:30:37;;;;;;;4.32;1.92;;;8.10;99.90;;;;;;5026103;28;20044;-79
2023/04/12 04:33:03;;;;;;;0.77;0.50;;;8.10;99.90;;;;;;5027074;28;20049;-77
2023/04/12 04:35:30;;;;;;;2.47;0.88;;;8.10;99.90;;;;;;5041980;28;20048;-80
2023/04/12 04:37:56;;;;;;;1.92;0.85;;;8.10;99.90;;;;;;5042148;28;20056;-77
2023/04/12 04:40:23;;;;;;;2.15;1.05;;;8.10;99.90;;;;;;5026067;28;20120;-79
2023/04/12 04:42:53;;;;;;;2.20;1.35;;;8.10;99.90;;;;;;5026462;28;20474;-80
2023/04/12 04:45:25;;;;;;;1.08;1.05;;;8.10;99.90;;;;;;5041858;28;20041;-79
2023/04/12 04:47:52;;;;;;;1.75;0.77;;;8.10;99.90;;;;;;5025192;28;20558;-78
2023/04/12 04:50:20;;;;;;;3.30;1.08;;;8.10;99.90;;;;;;5026580;28;20063;-80
2023/04/12 04:52:47;;;;;;;0.52;0.52;;;8.10;99.90;;;;;;5009742;28;20049;-78
2023/04/12 04:55:13;;;;;;;1.10;1.00;;;8.10;99.90;;;;;;5004381;28;20096;-80
2023/04/12 04:57:40;;;;;;;2.03;1.38;;;8.10;99.90;;;;;;5018498;28;20049;-79
2023/04/12 05:00:10;;;;;;;0.30;0.30;;;8.00;99.90;;;;;;5025164;28;20602;-81
2023/04/12 05:02:38;;;;;;;1.67;0.90;;;8.10;99.90;;;;;;5025720;28;20077;-80
2023/04/12 05:05:07;;;;;;;3.63;1.25;;;8.00;99.90;;;;;;5024889;28;20077;-79
2023/04/12 05:07:33;;;;;;;1.17;0.75;;;8.10;99.90;;;;;;5025344;28;20496;-77
2023/04/12 05:09:59;;;;;;;1.25;0.90;;;8.10;99.90;;;;;;5026231;28;20057;-80
2023/04/12 05:12:24;;;;;;;1.52;1.30;;;8.00;99.90;;;;;;5025286;28;20036;-78
2023/04/12 05:14:50;;;;;;;1.80;1.65;;;8.10;99.90;;;;;;5026054;28;20044;-76
2023/04/12 05:17:15;;;;;;;0.85;0.75;;;8.00;99.90;;;;;;5026071;28;20092;-79
2023/04/12 05:19:42;;;;;;;1.38;1.10;;;8.00;99.90;;;;;;5025585;28;20045;-79
2023/04/12 05:22:08;;;;;;;2.28;1.52;;;8.00;99.90;;;;;;5025517;28;20042;-80
2023/04/12 05:24:33;;;;;;;1.45;0.85;;;8.00;99.90;;;;;;5025741;28;20451;-80
2023/04/12 05:26:59;;;;;;;1.50;1.10;;;8.10;99.90;;;;;;5023618;28;20061;-77
2023/04/12 05:29:24;;;;;;;4.38;0.82;;;8.00;99.90;;;;;;5025216;28;20079;-79
2023/04/12 05:31:50;;;;;;;1.90;1.20;;;8.00;99.90;;;;;;5025873;28;20045;-78
2023/04/12 05:34:16;;;;;;;0.60;0.60;;;8.00;99.90;;;;;;5024300;28;20045;-78
2023/04/12 05:36:41;;;;;;;0.80;0.80;;;8.00;99.90;;;;;;5023901;28;20049;-78
2023/04/12 05:39:07;;;;;;;0.88;0.85;;;8.00;99.90;;;;;;5040916;28;20053;-83
2023/04/12 05:41:32;;;;;;;4.63;1.60;;;8.00;99.90;;;;;;5022683;28;20062;-79
2023/04/12 05:43:58;;;;;;;2.10;1.08;;;8.00;99.90;;;;;;5025673;28;20044;-78
2023/04/12 05:46:23;;;;;;;3.97;1.48;;;8.00;99.90;;;;;;5024836;28;20099;-79
2023/04/12 05:48:49;;;;;;;0.70;0.70;;;8.00;99.90;;;;;;5022129;28;20510;-79
2023/04/12 05:51:15;;;;;;;1.60;1.35;;;8.00;99.90;;;;;;5023818;28;20404;-79
2023/04/12 05:53:41;;;;;;;2.60;1.77;;;8.00;99.90;;;;;;5022121;28;20056;-78
2023/04/12 05:56:06;;;;;;;5.78;2.35;;;8.00;99.90;;;;;;5021073;28;20138;-79
2023/04/12 05:58:32;;;;;;;1.77;1.67;;;8.00;99.90;;;;;;5019056;28;20290;-79
2023/04/12 06:00:58;;;;;;;7.10;1.65;;;8.00;99.90;;;;;;5024445;28;20049;-81
2023/04/12 06:03:24;;;;;;;0.95;0.68;;;8.00;99.90;;;;;;5021717;28;20045;-83
2023/04/12 06:05:51;;;;;;;1.35;1.10;;;8.00;99.90;;;;;;5018959;28;20045;-79
2023/04/12 06:08:17;;;;;;;1.90;1.48;;;8.00;99.90;;;;;;5022284;28;20088;-77
2023/04/12 06:10:43;;;;;;;2.45;2.03;;;8.00;99.90;;;;;;5021630;28;20114;-78
2023/04/12 06:13:08;;;;;;;1.42;1.15;;;8.00;99.90;;;;;;5012235;28;20449;-82
2023/04/12 06:15:35;;;;;;;1.25;1.02;;;8.00;99.90;;;;;;5004476;28;20048;-79
2023/04/12 06:18:00;;;;;;;1.83;1.42;;;8.00;99.90;;;;;;5017879;28;20045;-79
2023/04/12 06:20:26;;;;;;;3.72;1.70;;;8.00;99.90;;;;;;5022389;28;20042;-78
2023/04/12 06:22:52;;;;;;;4.80;2.03;;;8.00;99.90;;;;;;5021489;28;20050;-79
2023/04/12 06:25:17;;;;;;;3.25;1.20;;;8.00;99.90;;;;;;5017296;28;20477;-78
2023/04/12 06:27:43;;;;;;;1.95;1.23;;;7.90;99.90;;;;;;5016212;28;20046;-78
2023/04/12 06:30:09;;;;;;;1.75;1.55;;;7.90;99.90;;;;;;5016803;28;20042;-78
2023/04/12 06:32:37;;;;;;;2.45;2.20;;;8.00;99.90;;;;;;5021462;28;20229;-78
2023/04/12 06:35:03;;;;;;;1.55;1.45;;;8.00;99.90;;;;;;5024047;28;20067;-78
2023/04/12 06:37:29;;;;;;;2.63;1.33;;;7.90;99.90;;;;;;5023834;28;20790;-79
2023/04/12 06:39:54;;;;;;;2.33;1.50;;;7.90;99.90;;;;;;5023928;28;20113;-76
2023/04/12 06:42:20;;;;;;;2.90;1.90;;;8.00;99.90;;;;;;5023547;28;20076;-77
2023/04/12 06:44:46;;;;;;;5.10;2.33;;;8.00;99.90;;;;;;5024204;28;20696;-77
2023/04/12 06:47:11;;;;;;;2.10;1.40;;;8.00;99.90;;;;;;5024134;28;20041;-78
2023/04/12 06:49:37;;;;;;;1.67;1.52;;;8.00;99.90;;;;;;5023565;28;20120;-78
2023/04/12 06:52:03;;;;;;;2.60;1.75;;;8.00;99.90;;;;;;5006214;28;20045;-78
2023/04/12 06:54:29;;;;;;;3.92;1.55;;;8.00;99.90;;;;;;5022367;28;20725;-78
2023/04/12 06:56:56;;;;;;;8.07;1.65;;;8.00;99.90;;;;;;5022066;28;20060;-78
2023/04/12 06:59:22;;;;;;;1.70;1.33;;;8.00;99.90;;;;;;5024142;28;20041;-77
2023/04/12 07:01:47;;;;;;;2.60;1.63;;;8.00;99.90;;;;;;5023378;28;20091;-77
2023/04/12 07:04:13;;;;;;;2.80;1.30;;;8.00;99.90;;;;;;5006164;28;20053;-78
2023/04/12 07:06:38;;;;;;;1.52;1.42;;;8.00;99.90;;;;;;5022416;28;20095;-78
2023/04/12 07:09:04;;;;;;;1.77;1.67;;;8.00;99.90;;;;;;5021734;28;20050;-78
2023/04/12 07:11:30;;;;;;;6.22;1.45;;;8.00;99.90;;;;;;5022684;28;20037;-77
2023/04/12 07:13:57;;;;;;;1.85;1.17;;;8.00;99.90;;;;;;5023244;28;20037;-78
2023/04/12 07:16:24;;;;;;;2.33;1.33;;;8.00;99.90;;;;;;5006412;28;20049;-79
2023/04/12 07:18:50;;;;;;;2.38;1.63;;;8.00;99.90;;;;;;5023613;28;20108;-79
2023/04/12 07:21:16;;;;;;;1.05;0.80;;;8.00;99.90;;;;;;5023171;28;20571;-77
2023/04/12 07:23:43;;;;;;;2.65;1.90;;;8.00;99.90;;;;;;5018312;28;20083;-79
2023/04/12 07:26:09;;;;;;;2.50;1.00;;;8.00;99.90;;;;;;5013746;28;20117;-78
2023/04/12 07:28:38;;;;;;;0.60;0.60;;;8.10;99.90;;;;;;5003957;28;20125;-78
2023/04/12 07:31:06;;;;;;;1.20;0.88;;;8.10;99.90;;;;;;5013383;28;20046;-78
2023/04/12 07:33:34;;;;;;;2.58;1.42;;;8.00;99.90;;;;;;5003706;28;20034;-78
2023/04/12 07:36:00;;;;;;;2.88;0.88;;;8.00;99.90;;;;;;5009893;28;20446;-78
2023/04/12 07:38:26;;;;;;;2.67;1.50;;;8.00;99.90;;;;;;5022537;28;20492;-78
2023/04/12 07:40:53;;;;;;;1.20;1.10;;;8.10;99.90;;;;;;5021967;28;20050;-77
2023/04/12 07:43:19;;;;;;;1.38;0.75;;;8.10;99.90;;;;;;5021492;28;20057;-79
2023/04/12 07:45:44;;;;;;;1.90;0.93;;;8.10;99.90;;;;;;5005272;28;20057;-79
2023/04/12 07:48:11;;;;;;;2.97;0.70;;;8.00;99.90;;;;;;5014601;28;20060;-78
2023/04/12 07:50:37;;;;;;;1.42;1.15;;;8.10;99.90;;;;;;5020839;28;20076;-78
2023/04/12 07:53:23;;;;;;;2.80;1.35;;;8.10;99.90;;;;;;5022534;28;20076;-78
2023/04/12 07:55:49;;;;;;;1.15;1.02;;;8.10;99.90;;;;;;5001490;28;20042;-78
2023/04/12 07:58:15;;;;;;;0.75;0.75;;;8.10;99.90;;;;;;5003683;28;20042;-78
2023/04/12 08:00:42;;;;;;;3.30;1.30;;;8.10;99.90;;;;;;5021335;28;20392;-78
2023/04/12 08:03:07;;;;;;;3.33;1.60;;;8.20;99.90;;;;;;5022905;28;20049;-78
2023/04/12 08:05:34;;;;;;;1.98;1.30;;;8.20;99.90;;;;;;5022167;28;20045;-78
2023/04/12 08:07:59;;;;;;;3.53;1.20;;;8.20;99.90;;;;;;5022222;28;20563;-78
2023/04/12 08:10:25;;;;;;;1.80;1.25;;;8.20;99.90;;;;;;5019414;28;20313;-79
2023/04/12 08:12:50;;;;;;;1.90;1.02;;;8.20;99.90;;;;;;5010091;28;20073;-78
2023/04/12 08:15:16;;;;;;;1.35;0.93;;;8.20;99.90;;;;;;5019915;28;20046;-78
2023/04/12 08:17:42;;;;;;;1.55;1.17;;;8.20;99.90;;;;;;4990653;28;20049;-78
2023/04/12 08:20:08;;;;;;;1.65;1.33;;;8.20;99.90;;;;;;5014561;28;20048;-77
2023/04/12 08:22:34;;;;;;;6.20;1.23;;;8.20;99.90;;;;;;5020565;28;20049;-78
2023/04/12 08:25:00;;;;;;;5.43;1.52;;;8.20;99.90;;;;;;5013008;28;20046;-77
2023/04/12 08:27:28;;;;;;;4.35;1.05;;;8.20;99.90;;;;;;5015172;28;20045;-77
2023/04/12 08:29:53;;;;;;;2.22;0.82;;;8.30;99.90;;;;;;4999680;28;20045;-77
2023/04/12 08:32:19;;;;;;;1.23;0.85;;;8.30;99.90;;;;;;5013380;28;20087;-77
2023/04/12 08:34:45;;;;;;;1.83;0.98;;;8.30;99.90;;;;;;5025728;28;20045;-77
2023/04/12 08:37:10;;;;;;;1.50;0.95;;;8.30;99.90;;;;;;5026457;28;20041;-78
2023/04/12 08:39:36;;;;;;;0.60;0.60;;;8.40;99.90;;;;;;5022143;28;20046;-79
2023/04/12 08:42:03;;;;;;;2.88;1.30;;;8.40;99.90;;;;;;5016165;28;20081;-78
2023/04/12 08:44:37;;;;;;;1.23;0.68;;;8.40;99.90;;;;;;5025320;28;20045;-78
2023/04/12 08:47:05;;;;;;;3.50;1.95;;;8.50;99.90;;;;;;5024106;28;20042;-78
2023/04/12 08:49:32;;;;;;;4.20;1.58;;;8.60;99.90;;;;;;5025256;28;20065;-78
2023/04/12 08:52:02;;;;;;;2.97;1.60;;;8.60;99.90;;;;;;5025572;28;20072;-78
2023/04/12 08:54:28;;;;;;;3.92;1.58;;;8.70;99.90;;;;;;5023624;28;20535;-78
2023/04/12 08:57:03;;;;;;;6.68;1.85;;;8.70;99.90;;;;;;5018496;28;20120;-78
2023/04/12 08:59:30;;;;;;;2.05;0.90;;;8.70;99.90;;;;;;5020875;28;20113;-77
2023/04/12 09:01:56;;;;;;;3.10;2.08;;;8.80;99.90;;;;;;5019720;28;20049;-77
2023/04/12 09:04:23;;;;;;;3.22;1.00;;;8.80;99.90;;;;;;5011689;28;20045;-76
2023/04/12 09:06:48;;;;;;;7.82;1.77;;;8.90;99.90;;;;;;5009216;28;20046;-76
2023/04/12 09:09:14;;;;;;;3.92;1.55;;;8.90;99.90;;;;;;5005699;28;20096;-76
2023/04/12 09:11:40;;;;;;;4.40;1.63;;;8.90;99.90;;;;;;5020402;28;20045;-80
2023/04/12 09:14:23;;;;;;;6.05;1.50;;;8.90;99.90;;;;;;5024672;28;20516;-77
2023/04/12 09:16:50;;;;;;;4.80;2.17;;;9.00;99.90;;;;;;5019286;28;20064;-78
2023/04/12 09:19:15;;;;;;;4.55;1.77;;;9.00;99.90;;;;;;5023355;28;20056;-77
2023/04/12 09:21:53;;;;;;;11.98;2.15;;;9.00;99.90;;;;;;5005443;28;20053;-79
2023/04/12 09:24:22;;;;;;;5.03;1.13;;;9.10;99.90;;;;;;5021871;28;20408;-77
2023/04/12 09:27:04;;;;;;;6.63;1.52;;;9.10;99.90;;;;;;5012991;28;20086;-79
2023/04/12 09:29:31;;;;;;;6.65;1.63;;;9.10;99.90;;;;;;5003931;28;20124;-77
2023/04/12 09:32:01;;;;;;;6.03;1.27;;;9.10;99.90;;;;;;5003871;28;20042;-77
2023/04/12 09:34:27;;;;;;;5.22;1.90;;;9.10;99.90;;;;;;5024362;28;20049;-79
2023/04/12 09:36:53;;;;;;;2.50;1.92;;;9.10;99.90;;;;;;5024135;28;20388;-77
2023/04/12 09:39:18;;;;;;;7.85;2.38;;;9.10;99.90;;;;;;5023392;28;20044;-78
2023/04/12 09:41:44;;;;;;;4.43;2.75;;;9.20;99.90;;;;;;5022828;28;20049;-79
2023/04/12 09:44:28;;;;;;;3.65;2.10;;;9.20;99.90;;;;;;5006566;28;20049;-78
2023/04/12 09:46:55;;;;;;;9.38;2.80;;;9.20;99.90;;;;;;5022323;28;20128;-79
2023/04/12 09:49:38;;;;;;;3.97;1.80;;;9.20;99.90;;;;;;5010562;28;20042;-79
2023/04/12 09:52:06;;;;;;;3.53;0.85;;;9.20;99.90;;;;;;5006235;28;20049;-79
2023/04/12 09:54:37;;;;;;;2.80;1.75;;;9.30;99.90;;;;;;5022729;28;20042;-78
2023/04/12 09:57:06;;;;;;;2.43;0.80;;;9.30;99.90;;;;;;5004891;28;20099;-78
2023/04/12 09:59:38;;;;;;;3.60;0.63;;;9.30;99.90;;;;;;5005016;28;20042;-78
2023/04/12 10:02:15;;;;;;;1.10;1.05;;;9.40;99.90;;;;;;5019874;28;20332;-79
2023/04/12 10:04:41;;;;;;;4.60;1.58;;;9.40;99.90;;;;;;5021926;28;20535;-78
2023/04/12 10:07:07;;;;;;;4.25;1.42;;;9.50;99.90;;;;;;5003329;28;20042;-78
2023/04/12 10:09:40;;;;;;;3.70;1.00;;;9.50;99.90;;;;;;5014370;28;20144;-79
2023/04/12 10:12:07;;;;;;;2.80;1.48;;;9.50;99.90;;;;;;5015867;28;20041;-79
2023/04/12 10:14:33;;;;;;;3.25;0.80;;;9.50;99.90;;;;;;5022788;28;20053;-79
2023/04/12 10:17:04;;;;;;;4.03;1.92;;;9.50;99.90;;;;;;5022507;28;20384;-78
2023/04/12 10:19:32;;;;;;;2.25;1.25;;;9.50;99.90;;;;;;5021901;28;20103;-79
2023/04/12 10:21:59;;;;;;;3.88;1.05;;;9.50;99.90;;;;;;5023420;28;20420;-76
2023/04/12 10:24:26;;;;;;;1.17;0.43;;;9.60;99.90;;;;;;5022196;28;20041;-78
2023/04/12 10:26:54;;;;;;;4.45;1.63;;;9.60;99.90;;;;;;5023836;28;20043;-79
2023/04/12 10:29:27;;;;;;;1.70;1.20;;;9.60;99.90;;;;;;5022186;28;20114;-79
2023/04/12 10:31:54;;;;;;;1.15;0.98;;;9.70;99.90;;;;;;5024017;28;20060;-79
2023/04/12 10:34:30;;;;;;;3.28;0.50;;;9.70;99.90;;;;;;5022810;28;20119;-78
2023/04/12 10:37:00;;;;;;;1.92;0.95;;;9.70;99.90;;;;;;5021992;28;20471;-85
2023/04/12 10:39:40;;;;;;;1.30;1.02;;;9.80;99.90;;;;;;5020547;28;20100;-78
2023/04/12 10:42:15;;;;;;;1.55;1.30;;;9.70;99.90;;;;;;5022512;28;20153;-83
2023/04/12 10:44:41;;;;;;;4.65;1.50;;;9.70;99.90;;;;;;5000391;28;20081;-80
2023/04/12 10:47:08;;;;;;;2.00;1.35;;;9.80;99.90;;;;;;5010952;28;20060;-80
2023/04/12 10:49:34;;;;;;;2.72;1.45;;;9.80;99.90;;;;;;5017270;28;20535;-78
2023/04/12 10:52:00;;;;;;;2.30;2.10;;;9.70;99.90;;;;;;4999741;28;20041;-78
2023/04/12 10:54:26;;;;;;;3.03;1.20;;;9.70;99.90;;;;;;5014249;28;20447;-79
2023/04/12 10:56:52;;;;;;;6.07;1.45;;;9.70;99.90;;;;;;5022266;28;20106;-78
2023/04/12 10:59:17;;;;;;;12.85;1.63;;;9.80;99.90;;;;;;5022532;28;20036;-77
2023/04/12 11:02:09;;;;;;;1.88;1.05;;;9.80;99.90;;;;;;5023204;28;20076;-78
2023/04/12 11:04:35;;;;;;;1.83;0.52;;;9.80;99.90;;;;;;5021406;28;20057;-77
2023/04/12 11:07:06;;;;;;;4.82;0.77;;;9.80;99.90;;;;;;5023315;28;20053;-77
2023/04/12 11:09:44;;;;;;;2.63;1.27;;;9.80;99.90;;;;;;5019802;28;20050;-77
2023/04/12 11:12:13;;;;;;;2.17;0.50;;;9.80;99.90;;;;;;5023661;28;20435;-79
2023/04/12 11:14:50;;;;;;;3.65;0.75;;;9.80;99.90;;;;;;5037764;28;20049;-78
2023/04/12 11:17:15;;;;;;;3.55;1.75;;;9.80;99.90;;;;;;5005839;28;20084;-78
2023/04/12 11:19:59;;;;;;;4.85;1.10;;;9.80;99.90;;;;;;5021462;28;20077;-78
2023/04/12 11:22:27;;;;;;;3.63;1.45;;;9.80;99.90;;;;;;5023221;28;20120;-78
2023/04/12 11:24:55;;;;;;;2.35;0.52;;;9.80;99.90;;;;;;5004953;28;20091;-79
2023/04/12 11:27:22;;;;;;;4.43;1.10;;;9.90;99.90;;;;;;5022428;28;20045;-78
2023/04/12 11:29:50;;;;;;;4.35;1.88;;;9.90;99.90;;;;;;5022680;28;20073;-79
2023/04/12 11:32:16;;;;;;;2.20;0.68;;;9.90;99.90;;;;;;5021585;28;20043;-78
2023/04/12 11:34:44;;;;;;;8.93;1.88;;;9.90;99.90;;;;;;5021147;28;20080;-78
2023/04/12 11:37:09;;;;;;;1.98;1.15;;;9.90;99.90;;;;;;5021610;28;20128;-78
2023/04/12 11:39:39;;;;;;;4.25;1.15;;;9.90;99.90;;;;;;5022079;28;20112;-78
2023/04/12 11:42:07;;;;;;;4.60;1.80;;;9.90;99.90;;;;;;5023592;28;20054;-77
2023/04/12 11:44:33;;;;;;;3.10;1.40;;;9.90;99.90;;;;;;5037582;28;20069;-78
2023/04/12 11:47:00;;;;;;;5.78;1.23;;;10.00;99.90;;;;;;5002310;28;20084;-77
2023/04/12 11:49:26;;;;;;;1.58;0.70;;;10.10;99.90;;;;;;5021445;28;20081;-79
2023/04/12 11:52:03;;;;;;;6.22;1.42;;;10.10;99.90;;;;;;5023025;28;20431;-77
2023/04/12 11:54:29;;;;;;;3.45;1.33;;;10.10;99.90;;;;;;5019426;28;20129;-80
2023/04/12 11:56:59;;;;;;;5.38;1.27;;;10.10;99.90;;;;;;5021480;28;20073;-80
2023/04/12 11:59:32;;;;;;;5.45;0.70;;;10.10;99.90;;;;;;5022164;28;20049;-78
2023/04/12 12:02:00;;;;;;;3.55;1.48;;;10.10;99.90;;;;;;5021381;28;20045;-79
2023/04/12 12:04:28;;;;;;;1.80;0.77;;;10.10;99.90;;;;;;5024246;28;20046;-79
2023/04/12 12:06:58;;;;;;;9.52;1.08;;;10.20;99.90;;;;;;5024976;28;20136;-79
2023/04/12 12:09:27;;;;;;;1.42;1.00;;;10.20;99.90;;;;;;5024078;28;20049;-79
2023/04/12 12:11:54;;;;;;;2.65;0.60;;;10.20;99.90;;;;;;5026883;28;20048;-78
2023/04/12 12:14:22;;;;;;;1.95;1.13;;;10.30;99.90;;;;;;5027452;28;20056;-79
2023/04/12 12:16:58;;;;;;;1.75;1.10;;;10.30;99.90;;;;;;5008900;28;20049;-78
2023/04/12 12:19:35;;;;;;;5.90;1.23;;;10.30;99.90;;;;;;5024342;28;20053;-79
2023/04/12 12:22:05;;;;;;;4.35;1.77;;;10.30;99.90;;;;;;5025864;28;20360;-79
2023/04/12 12:24:31;;;;;;;2.30;0.60;;;10.30;99.90;;;;;;5023615;28;20081;-81
2023/04/12 12:27:01;;;;;;;1.63;0.60;;;10.30;99.90;;;;;;5025156;28;20151;-78
2023/04/12 12:29:34;;;;;;;2.65;1.27;;;10.30;99.90;;;;;;5024390;28;20072;-77
2023/04/12 12:32:00;;;;;;;3.13;0.70;;;10.30;99.90;;;;;;5024892;28;20034;-77
2023/04/12 12:34:32;;;;;;;2.70;0.75;;;10.30;99.90;;;;;;5024697;28;20436;-78
2023/04/12 12:36:58;;;;;;;2.15;1.10;;;10.30;99.90;;;;;;5024719;28;20045;-79
2023/04/12 12:39:23;;;;;;;4.18;0.85;;;10.30;99.90;;;;;;5024355;28;20072;-77
2023/04/12 12:41:54;;;;;;;2.10;0.70;;;10.30;99.90;;;;;;5008082;28;20511;-78
2023/04/12 12:44:21;;;;;;;2.65;0.93;;;10.30;99.90;;;;;;5024679;28;20140;-78
2023/04/12 12:46:46;;;;;;;2.17;0.63;;;10.30;99.90;;;;;;5023820;28;20072;-78
2023/04/12 12:49:12;;;;;;;1.55;0.85;;;10.30;99.90;;;;;;5008086;28;20049;-78
2023/04/12 12:51:37;;;;;;;2.92;0.90;;;10.30;99.90;;;;;;5023999;28;20124;-79
2023/04/12 12:54:03;;;;;;;0.82;0.68;;;10.30;99.90;;;;;;5025534;28;20058;-79
2023/04/12 12:56:29;;;;;;;1.48;0.73;;;10.30;99.90;;;;;;5025910;28;20125;-78
2023/04/12 12:58:54;;;;;;;4.40;1.73;;;10.30;99.90;;;;;;5024099;28;20095;-78